createdAt,value
2022-10-09T00:02:01.298Z,2.17
2022-10-09T00:04:48.769Z,2.00
2022-10-09T00:07:41.876Z,1.70
2022-10-09T00:10:28.904Z,2.30
2022-10-09T00:13:18.128Z,1.97
2022-10-09T00:16:06.762Z,2.00
2022-10-09T00:18:55.839Z,1.60
2022-10-09T00:21:45.117Z,1.57
2022-10-09T00:24:38.055Z,2.17
2022-10-09T00:27:27.463Z,1.77
2022-10-09T00:30:15.042Z,2.20
2022-10-09T00:33:03.832Z,1.70
2022-10-09T00:35:58.037Z,2.03
2022-10-09T00:38:44.748Z,2.07
2022-10-09T00:41:38.149Z,2.00
2022-10-09T00:45:01.482Z,1.73
2022-10-09T00:48:09.496Z,2.27
2022-10-09T00:51:01.609Z,2.17
2022-10-09T00:53:48.933Z,2.10
2022-10-09T00:56:39.858Z,1.87
2022-10-09T00:59:27.275Z,2.17
2022-10-09T01:02:17.094Z,2.63
2022-10-09T01:05:05.635Z,2.10
2022-10-09T01:08:04.726Z,1.77
2022-10-09T01:11:01.861Z,1.80
2022-10-09T01:14:04.189Z,2.03
2022-10-09T01:17:06.589Z,2.70
2022-10-09T01:20:27.542Z,2.00
2022-10-09T01:23:49.977Z,1.93
2022-10-09T01:30:11.874Z,1.77
2022-10-09T01:33:04.132Z,2.37
2022-10-09T01:35:51.500Z,1.60
2022-10-09T01:38:56.377Z,2.03
2022-10-09T01:41:43.739Z,1.60
2022-10-09T01:44:41.271Z,2.03
2022-10-09T01:47:28.801Z,1.87
2022-10-09T01:50:27.660Z,1.80
2022-10-09T01:53:29.718Z,2.00
2022-10-09T01:56:25.809Z,1.70
2022-10-09T01:59:21.394Z,1.60
2022-10-09T02:02:12.716Z,2.10
2022-10-09T02:05:04.709Z,1.90
2022-10-09T02:07:52.002Z,1.57
2022-10-09T02:10:39.981Z,2.10
2022-10-09T02:13:27.183Z,2.10
2022-10-09T02:16:25.675Z,2.00
2022-10-09T02:19:18.801Z,1.83
2022-10-09T02:22:20.100Z,2.20
2022-10-09T02:25:27.454Z,2.13
2022-10-09T02:28:20.144Z,2.17
2022-10-09T02:31:26.857Z,2.00
2022-10-09T02:34:37.697Z,2.13
2022-10-09T02:37:26.651Z,1.80
2022-10-09T02:40:15.479Z,2.57
2022-10-09T02:43:04.369Z,2.27
2022-10-09T02:45:50.819Z,2.00
2022-10-09T02:48:37.908Z,2.23
2022-10-09T02:51:27.549Z,1.77
2022-10-09T02:54:16.821Z,2.00
2022-10-09T02:57:04.074Z,1.93
2022-10-09T02:59:50.579Z,2.00
2022-10-09T03:02:38.079Z,2.47
2022-10-09T03:05:32.344Z,1.90
2022-10-09T03:08:22.632Z,2.03
2022-10-09T03:11:12.511Z,2.00
2022-10-09T03:14:01.284Z,2.30
2022-10-09T03:16:52.302Z,2.07
2022-10-09T03:19:38.776Z,1.77
2022-10-09T03:22:25.750Z,2.03
2022-10-09T03:25:16.413Z,2.20
2022-10-09T03:28:27.873Z,1.97
2022-10-09T03:31:50.681Z,1.93
2022-10-09T03:34:33.996Z,2.23
2022-10-09T03:37:21.445Z,1.93
2022-10-09T03:40:15.883Z,2.10
2022-10-09T03:46:16.343Z,2.20
2022-10-09T03:49:04.035Z,2.10
2022-10-09T03:51:53.040Z,2.03
2022-10-09T03:54:41.074Z,2.17
2022-10-09T03:57:32.311Z,2.30
2022-10-09T04:00:22.666Z,2.13
2022-10-09T04:03:13.636Z,2.20
2022-10-09T04:06:06.319Z,2.17
2022-10-09T04:08:52.958Z,2.40
2022-10-09T04:11:40.043Z,2.27
2022-10-09T04:14:29.062Z,2.03
2022-10-09T04:17:24.413Z,2.50
2022-10-09T04:20:13.730Z,2.00
2022-10-09T04:23:00.280Z,2.30
2022-10-09T04:25:47.697Z,2.57
2022-10-09T04:28:36.991Z,2.20
2022-10-09T04:31:23.794Z,2.37
2022-10-09T04:34:19.289Z,2.37
2022-10-09T04:37:06.017Z,2.67
2022-10-09T04:39:57.273Z,2.70
2022-10-09T04:42:43.946Z,2.63
2022-10-09T04:45:30.838Z,2.30
2022-10-09T04:48:19.856Z,2.47
2022-10-09T04:51:13.783Z,2.10
2022-10-09T04:54:02.514Z,2.40
2022-10-09T04:56:51.513Z,2.17
2022-10-09T04:59:37.958Z,2.80
2022-10-09T05:02:27.406Z,3.30
2022-10-09T05:05:17.505Z,2.47
2022-10-09T05:08:12.981Z,2.43
2022-10-09T05:11:02.442Z,2.67
2022-10-09T05:13:52.608Z,2.60
2022-10-09T05:17:08.168Z,2.63
2022-10-09T05:19:52.401Z,2.70
2022-10-09T05:22:41.010Z,2.23
2022-10-09T05:26:17.705Z,2.47
2022-10-09T05:29:07.919Z,2.37
2022-10-09T05:32:00.681Z,2.83
2022-10-09T05:34:50.243Z,2.37
2022-10-09T05:38:01.846Z,2.23
2022-10-09T05:41:08.426Z,2.20
2022-10-09T05:43:57.384Z,2.37
2022-10-09T05:46:45.477Z,3.10
2022-10-09T05:49:34.358Z,2.50
2022-10-09T05:52:20.809Z,2.60
2022-10-09T05:55:11.534Z,2.60
2022-10-09T05:57:58.014Z,2.30
2022-10-09T06:00:52.469Z,2.27
2022-10-09T06:03:48.285Z,2.40
2022-10-09T06:06:45.036Z,2.50
2022-10-09T06:09:31.556Z,3.07
2022-10-09T06:12:19.081Z,2.23
2022-10-09T06:15:07.967Z,2.80
2022-10-09T06:18:21.879Z,2.50
2022-10-09T06:21:12.944Z,2.50
2022-10-09T06:24:06.097Z,2.40
2022-10-09T06:26:53.113Z,2.57
2022-10-09T06:29:42.334Z,2.53
2022-10-09T06:32:28.820Z,2.60
2022-10-09T06:35:15.714Z,3.10
2022-10-09T06:38:06.172Z,2.70
2022-10-09T06:40:52.592Z,2.57
2022-10-09T06:43:58.343Z,2.70
2022-10-09T06:46:52.739Z,2.67
2022-10-09T06:49:47.528Z,2.93
2022-10-09T06:52:34.068Z,2.53
2022-10-09T06:55:26.407Z,3.47
2022-10-09T06:58:43.310Z,2.80
2022-10-09T07:01:50.024Z,2.33
2022-10-09T07:04:37.093Z,3.00
2022-10-09T07:07:26.925Z,2.80
2022-10-09T07:10:25.098Z,3.23
2022-10-09T07:13:21.924Z,3.47
2022-10-09T07:16:08.947Z,3.10
2022-10-09T07:19:02.409Z,3.63
2022-10-09T07:22:26.763Z,3.67
2022-10-09T07:25:44.014Z,3.10
2022-10-09T07:28:32.608Z,3.10
2022-10-09T07:31:19.189Z,3.20
2022-10-09T07:34:08.506Z,3.60
2022-10-09T07:37:01.081Z,3.63
2022-10-09T07:39:51.381Z,5.23
2022-10-09T07:42:40.428Z,3.73
2022-10-09T07:45:36.043Z,3.60
2022-10-09T07:48:23.167Z,3.73
2022-10-09T07:51:21.216Z,3.50
2022-10-09T07:54:07.712Z,3.30
2022-10-09T07:56:54.656Z,3.47
2022-10-09T07:59:49.570Z,2.90
2022-10-09T08:02:38.640Z,3.23
2022-10-09T08:05:28.577Z,3.80
2022-10-09T08:08:14.941Z,3.50
2022-10-09T08:11:11.124Z,3.70
2022-10-09T08:14:02.477Z,3.47
2022-10-09T08:16:49.176Z,3.03
2022-10-09T08:19:39.563Z,3.67
2022-10-09T08:22:35.643Z,2.83
2022-10-09T08:25:24.351Z,3.13
2022-10-09T08:28:11.066Z,3.07
2022-10-09T08:30:59.287Z,3.47
2022-10-09T08:33:46.437Z,3.00
2022-10-09T08:36:36.763Z,3.73
2022-10-09T08:39:23.990Z,2.87
2022-10-09T08:42:54.906Z,2.90
2022-10-09T08:45:45.113Z,3.27
2022-10-09T08:48:47.755Z,2.50
2022-10-09T08:51:46.374Z,3.03
2022-10-09T08:54:51.989Z,2.63
2022-10-09T08:57:41.039Z,3.27
2022-10-09T09:00:51.073Z,2.53
2022-10-09T09:04:11.110Z,3.00
2022-10-09T09:07:27.387Z,2.30
2022-10-09T09:10:37.327Z,2.80
2022-10-09T09:13:57.363Z,2.17
2022-10-09T09:17:18.438Z,2.63
2022-10-09T09:20:14.799Z,2.30
2022-10-09T09:23:03.243Z,2.40
2022-10-09T09:25:50.124Z,2.00
2022-10-09T09:28:37.111Z,2.07
2022-10-09T09:31:27.391Z,2.37
2022-10-09T09:34:18.170Z,2.23
2022-10-09T09:37:04.938Z,2.03
2022-10-09T09:40:35.496Z,2.07
2022-10-09T09:43:04.853Z,1.80
2022-10-09T09:45:54.402Z,1.80
2022-10-09T09:48:43.592Z,1.87
2022-10-09T09:51:33.410Z,1.80
2022-10-09T09:54:23.137Z,2.50
2022-10-09T09:57:18.214Z,1.80
2022-10-09T10:00:24.706Z,1.27
2022-10-09T10:03:14.689Z,1.67
2022-10-09T10:06:01.840Z,1.50
2022-10-09T10:09:00.256Z,1.37
2022-10-09T10:11:49.899Z,1.33
2022-10-09T10:14:38.032Z,1.37
2022-10-09T10:17:30.260Z,1.80
2022-10-09T10:20:18.234Z,1.70
2022-10-09T10:23:04.892Z,1.60
2022-10-09T10:25:54.733Z,1.53
2022-10-09T10:28:50.105Z,2.00
2022-10-09T10:31:46.029Z,1.53
2022-10-09T10:34:38.659Z,1.93
2022-10-09T10:37:31.848Z,1.63
2022-10-09T10:40:23.561Z,1.27
2022-10-09T10:43:27.794Z,1.07
2022-10-09T10:46:24.611Z,1.13
2022-10-09T10:49:12.987Z,1.37
2022-10-09T10:52:12.395Z,1.40
2022-10-09T10:55:05.114Z,1.30
2022-10-09T10:57:57.076Z,1.67
2022-10-09T11:00:53.710Z,1.20
2022-10-09T11:04:09.360Z,1.27
2022-10-09T11:07:07.631Z,1.00
2022-10-09T11:10:03.924Z,1.27
2022-10-09T11:12:56.221Z,1.33
2022-10-09T11:15:54.974Z,1.20
2022-10-09T11:18:59.029Z,1.20
2022-10-09T11:21:57.830Z,1.40
2022-10-09T11:25:03.976Z,1.10
2022-10-09T11:27:55.829Z,1.33
2022-10-09T11:30:46.314Z,1.33
2022-10-09T11:33:37.924Z,1.00
2022-10-09T11:36:33.171Z,1.30
2022-10-09T11:39:23.710Z,0.80
2022-10-09T11:42:16.065Z,1.00
2022-10-09T11:45:17.528Z,1.00
2022-10-09T11:48:11.260Z,1.33
2022-10-09T11:51:03.873Z,1.27
2022-10-09T11:53:53.423Z,1.00
2022-10-09T11:56:40.037Z,1.10
2022-10-09T11:59:31.401Z,1.70
2022-10-09T12:02:26.932Z,1.20
2022-10-09T12:05:19.391Z,1.30
2022-10-09T12:08:16.997Z,1.33
2022-10-09T12:11:14.499Z,1.20
2022-10-09T12:14:02.676Z,1.10
2022-10-09T12:16:50.771Z,1.20
2022-10-09T12:19:40.634Z,1.27
2022-10-09T12:22:31.680Z,1.27
2022-10-09T12:25:26.270Z,1.13
2022-10-09T12:28:21.790Z,1.23
2022-10-09T12:31:18.595Z,1.47
2022-10-09T12:34:18.808Z,1.23
2022-10-09T12:37:12.536Z,1.00
2022-10-09T12:40:08.875Z,1.47
2022-10-09T12:42:57.423Z,1.40
2022-10-09T12:45:54.870Z,1.20
2022-10-09T12:48:45.929Z,4.33
2022-10-09T12:51:35.223Z,2.53
2022-10-09T12:54:22.333Z,2.13
2022-10-09T12:57:15.608Z,1.70
2022-10-09T13:00:02.699Z,1.40
2022-10-09T13:02:49.457Z,1.60
2022-10-09T13:05:38.309Z,1.00
2022-10-09T13:08:29.044Z,2.33
2022-10-09T13:11:22.997Z,1.20
2022-10-09T13:14:25.677Z,1.33
2022-10-09T13:17:25.172Z,1.20
2022-10-09T13:20:26.375Z,1.00
2022-10-09T13:23:29.839Z,1.10
2022-10-09T13:26:23.890Z,1.10
2022-10-09T13:29:12.840Z,1.60
2022-10-09T13:31:59.752Z,1.47
2022-10-09T13:34:46.778Z,1.33
2022-10-09T13:37:33.602Z,1.30
2022-10-09T13:40:22.462Z,1.30
2022-10-09T13:43:12.617Z,1.23
2022-10-09T13:45:59.845Z,1.50
2022-10-09T13:48:46.643Z,1.20
2022-10-09T13:51:33.246Z,1.20
2022-10-09T13:54:20.032Z,1.20
2022-10-09T13:57:08.267Z,1.40
2022-10-09T13:59:54.997Z,1.07
2022-10-09T14:02:41.759Z,1.33
2022-10-09T14:05:28.308Z,1.70
2022-10-09T14:08:15.175Z,1.50
2022-10-09T14:11:02.336Z,1.50
2022-10-09T14:13:50.413Z,1.53
2022-10-09T14:16:37.192Z,1.10
2022-10-09T14:19:27.547Z,1.20
2022-10-09T14:22:17.301Z,1.07
2022-10-09T14:25:04.849Z,1.50
2022-10-09T14:27:51.431Z,1.30
2022-10-09T14:30:42.789Z,1.20
2022-10-09T14:33:29.497Z,1.93
2022-10-09T14:36:20.237Z,1.00
2022-10-09T14:39:07.058Z,1.20
2022-10-09T14:41:53.832Z,1.00
2022-10-09T14:44:40.904Z,1.50
2022-10-09T14:47:28.790Z,1.03
2022-10-09T14:50:15.573Z,1.10
2022-10-09T14:53:02.370Z,1.03
2022-10-09T14:55:49.145Z,1.10
2022-10-09T14:58:37.633Z,1.83
2022-10-09T15:01:24.892Z,1.00
2022-10-09T15:04:14.349Z,1.10
2022-10-09T15:07:00.727Z,1.10
2022-10-09T15:09:47.587Z,1.20
2022-10-09T15:12:34.272Z,1.20
2022-10-09T15:15:21.042Z,1.00
2022-10-09T15:18:07.812Z,1.20
2022-10-09T15:20:55.903Z,1.13
2022-10-09T15:23:42.978Z,1.33
2022-10-09T15:26:32.927Z,1.03
2022-10-09T15:29:19.358Z,1.40
2022-10-09T15:32:06.229Z,1.20
2022-10-09T15:34:52.883Z,1.03
2022-10-09T15:37:41.122Z,1.57
2022-10-09T15:40:28.411Z,1.10
2022-10-09T15:43:16.244Z,1.23
2022-10-09T15:46:04.054Z,1.27
2022-10-09T15:48:51.136Z,1.00
2022-10-09T15:51:38.011Z,1.10
2022-10-09T15:54:25.991Z,1.00
2022-10-09T15:57:12.695Z,1.40
2022-10-09T15:59:59.458Z,1.27
2022-10-09T16:02:46.153Z,1.10
2022-10-09T16:05:38.050Z,1.30
2022-10-09T16:08:24.368Z,1.30
2022-10-09T16:11:14.780Z,1.00
2022-10-09T16:14:01.854Z,1.33
2022-10-09T16:16:51.477Z,1.70
2022-10-09T16:19:37.839Z,1.20
2022-10-09T16:22:24.573Z,1.43
2022-10-09T16:25:12.591Z,1.50
2022-10-09T16:28:00.393Z,1.53
2022-10-09T16:30:47.122Z,1.40
2022-10-09T16:33:34.493Z,1.43
2022-10-09T16:36:21.322Z,1.63
2022-10-09T16:39:07.954Z,1.50
2022-10-09T16:41:54.756Z,1.80
2022-10-09T16:44:43.153Z,1.63
2022-10-09T16:47:29.991Z,1.77
2022-10-09T16:50:17.704Z,1.37
2022-10-09T16:53:04.309Z,1.27
2022-10-09T16:55:51.007Z,1.57
2022-10-09T16:58:37.834Z,2.37
2022-10-09T17:01:27.310Z,1.70
2022-10-09T17:04:14.994Z,1.87
2022-10-09T17:07:01.556Z,1.70
2022-10-09T17:09:48.135Z,1.63
2022-10-09T17:12:35.079Z,2.27
2022-10-09T17:15:22.378Z,3.40
2022-10-09T17:18:10.652Z,1.60
2022-10-09T17:20:57.297Z,2.10
2022-10-09T17:23:44.139Z,3.13
2022-10-09T17:26:31.155Z,2.43
2022-10-09T17:29:18.028Z,2.80
2022-10-09T17:32:07.045Z,2.37
2022-10-09T17:34:57.223Z,2.87
2022-10-09T17:37:44.366Z,2.80
2022-10-09T17:40:31.309Z,2.50
2022-10-09T17:43:18.385Z,2.40
2022-10-09T17:46:05.847Z,2.67
2022-10-09T17:48:53.548Z,2.80
2022-10-09T17:51:44.163Z,3.03
2022-10-09T17:54:30.772Z,2.70
2022-10-09T17:57:17.492Z,4.30
2022-10-09T18:00:05.347Z,4.17
2022-10-09T18:02:52.191Z,4.77
2022-10-09T18:05:42.114Z,3.07
2022-10-09T18:08:31.670Z,2.60
2022-10-09T18:11:18.179Z,2.60
2022-10-09T18:14:05.132Z,1.97
2022-10-09T18:16:53.764Z,1.90
2022-10-09T18:19:41.505Z,1.97
2022-10-09T18:22:28.340Z,2.40
2022-10-09T18:25:16.610Z,2.53
2022-10-09T18:28:03.663Z,2.47
2022-10-09T18:30:50.409Z,2.60
2022-10-09T18:33:37.577Z,2.10
2022-10-09T18:36:25.949Z,2.80
2022-10-09T18:39:15.726Z,2.57
2022-10-09T18:42:04.468Z,2.77
2022-10-09T18:44:51.470Z,3.67
2022-10-09T18:47:38.456Z,3.13
2022-10-09T18:50:26.370Z,3.23
2022-10-09T18:53:13.837Z,3.40
2022-10-09T18:56:00.947Z,3.70
2022-10-09T18:58:50.838Z,3.03
2022-10-09T19:01:37.884Z,2.60
2022-10-09T19:04:24.778Z,2.63
2022-10-09T19:07:11.583Z,1.97
2022-10-09T19:09:58.325Z,2.13
2022-10-09T19:12:45.382Z,2.13
2022-10-09T19:15:33.558Z,2.37
2022-10-09T19:18:20.794Z,2.20
2022-10-09T19:21:13.836Z,2.60
2022-10-09T19:24:03.586Z,2.40
2022-10-09T19:26:50.273Z,2.50
2022-10-09T19:29:37.226Z,2.13
2022-10-09T19:32:25.704Z,2.20
2022-10-09T19:35:12.132Z,2.23
2022-10-09T19:37:58.868Z,2.77
2022-10-09T19:40:47.155Z,2.13
2022-10-09T19:43:34.184Z,2.30
2022-10-09T19:46:22.773Z,2.50
2022-10-09T19:49:10.716Z,2.77
2022-10-09T19:51:57.263Z,2.70
2022-10-09T19:54:43.935Z,3.37
2022-10-09T19:57:30.691Z,2.20
2022-10-09T20:00:17.852Z,2.43
2022-10-09T20:03:04.356Z,2.10
2022-10-09T20:05:52.900Z,2.57
2022-10-09T20:08:41.447Z,2.07
2022-10-09T20:11:28.442Z,5.30
2022-10-09T20:14:16.081Z,3.67
2022-10-09T20:17:02.601Z,2.00
2022-10-09T20:19:49.636Z,1.77
2022-10-09T20:22:37.593Z,2.10
2022-10-09T20:25:24.542Z,1.90
2022-10-09T20:28:11.165Z,1.97
2022-10-09T20:30:58.539Z,1.93
2022-10-09T20:33:46.256Z,2.50
2022-10-09T20:36:36.091Z,1.83
2022-10-09T20:39:23.928Z,2.10
2022-10-09T20:42:10.848Z,1.87
2022-10-09T20:44:57.549Z,2.00
2022-10-09T20:47:45.053Z,2.10
2022-10-09T20:50:31.557Z,2.10
2022-10-09T20:53:18.252Z,2.13
2022-10-09T20:56:09.090Z,4.17
2022-10-09T20:58:56.221Z,3.00
2022-10-09T21:01:43.274Z,2.97
2022-10-09T21:04:31.542Z,6.00
2022-10-09T21:07:18.143Z,7.57
2022-10-09T21:10:05.419Z,4.43
2022-10-09T21:12:53.652Z,3.60
2022-10-09T21:15:43.788Z,4.70
2022-10-09T21:18:30.511Z,4.57
2022-10-09T21:21:19.357Z,6.33
2022-10-09T21:24:06.247Z,6.53
2022-10-09T21:26:52.601Z,5.03
2022-10-09T21:29:41.439Z,6.97
2022-10-09T21:32:28.942Z,4.83
2022-10-09T21:35:16.680Z,3.10
2022-10-09T21:38:03.377Z,4.40
2022-10-09T21:40:50.659Z,5.63
2022-10-09T21:43:37.327Z,4.13
2022-10-09T21:46:25.670Z,2.97
2022-10-09T21:49:20.204Z,3.37
2022-10-09T21:52:06.564Z,4.20
2022-10-09T21:54:53.296Z,3.60
2022-10-09T21:57:40.024Z,3.07
2022-10-09T22:00:26.847Z,2.47
2022-10-09T22:03:15.017Z,2.70
2022-10-09T22:06:04.522Z,2.20
2022-10-09T22:08:51.073Z,1.90
2022-10-09T22:11:38.051Z,2.13
2022-10-09T22:14:24.997Z,1.93
2022-10-09T22:17:11.932Z,1.83
2022-10-09T22:19:59.933Z,2.10
2022-10-09T22:22:46.844Z,1.97
2022-10-09T22:25:34.555Z,2.10
2022-10-09T22:28:21.398Z,2.37
2022-10-09T22:31:12.270Z,2.03
2022-10-09T22:34:02.660Z,2.07
2022-10-09T22:36:50.640Z,1.97
2022-10-09T22:39:37.452Z,1.73
2022-10-09T22:42:24.658Z,1.90
2022-10-09T22:45:11.836Z,1.90
2022-10-09T22:47:59.473Z,1.90
2022-10-09T22:50:46.643Z,2.50
2022-10-09T22:53:35.659Z,2.13
2022-10-09T22:56:24.437Z,1.87
2022-10-09T22:59:14.554Z,1.40
2022-10-09T23:02:01.465Z,1.70
2022-10-09T23:04:47.912Z,1.80
2022-10-09T23:07:34.651Z,1.90
2022-10-09T23:10:22.769Z,1.90
2022-10-09T23:13:09.528Z,2.30
2022-10-09T23:15:56.365Z,2.10
2022-10-09T23:18:44.200Z,2.37
2022-10-09T23:21:30.771Z,1.80
2022-10-09T23:24:18.140Z,2.07
2022-10-09T23:27:06.252Z,2.23
2022-10-09T23:29:53.188Z,1.77
2022-10-09T23:32:39.818Z,1.90
2022-10-09T23:35:26.798Z,2.00
2022-10-09T23:38:13.715Z,2.03
2022-10-09T23:41:02.313Z,1.93
2022-10-09T23:43:50.650Z,1.70
2022-10-09T23:46:37.855Z,2.00
2022-10-09T23:49:24.354Z,1.97
2022-10-09T23:52:11.315Z,1.97
2022-10-09T23:54:58.067Z,1.80
2022-10-09T23:57:45.055Z,2.07
